Who's Online

We have 4 guests online

Aviation WX

[source: ADDS]
METAR
KIAD 290052Z 04006KT 10SM CLR 22/12 A3004 RMK AO2 SLP171 T02220122 =
TAF
KIAD 290000Z 2900/3006 35005KT P6SM SKC FM290700 00000KT P6SM FEW250 FM291700 19008KT P6SM FEW250 =
SR / SS: 00:18 / 13:27 UTC (Washington-Dulles 2014-08-28)

JoomlaWatch Agent

Home Products and Services

This section describes Multilink Systems products and services

 

 

Under construction Please Standby